Time;durP1;ratioP1;P1;durP2;ratioP2;P2;SDS_P1;SDS_P2;PMS_P1;PMS_P2;Temp;Humidity;BMP_temperature;BMP_pressure;BME280_temperature;BME280_humidity;BME280_pressure;Samples;Min_cycle;Max_cycle;Signal;HPM_P1;HPM_P2
2021/04/27 08:46:24;;;;;;;37.45;23.33;;;333.60;1868.80;;;;;;4976277;28;20134;-75
2021/04/27 08:48:50;;;;;;;27.50;18.75;;;333.60;1868.80;;;;;;4976153;28;20030;-77
2021/04/27 08:51:16;;;;;;;20.83;15.70;;;333.70;1868.80;;;;;;4975740;28;20034;-73
2021/04/27 08:53:42;;;;;;;19.75;15.50;;;333.60;1868.80;;;;;;4975475;28;20026;-74
2021/04/27 08:56:07;;;;;;;23.27;16.58;;;333.60;1868.80;;;;;;4976287;28;20023;-72
2021/04/27 08:58:33;;;;;;;31.83;16.77;;;333.60;1868.80;;;;;;4976086;28;20026;-72
2021/04/27 09:00:59;;;;;;;31.20;18.58;;;333.70;1945.60;;;;;;4974426;28;20027;-72
2021/04/27 09:03:25;;;;;;;32.80;17.63;;;358.40;1920.00;;;;;;4976058;28;20046;-74
2021/04/27 09:05:51;;;;;;;27.90;15.60;;;333.70;1868.80;;;;;;4973108;28;20134;-72
2021/04/27 09:08:34;;;;;;;18.90;13.57;;;333.60;1868.80;;;;;;4975404;28;20042;-80
2021/04/27 09:11:00;;;;;;;25.58;16.83;;;333.60;1868.80;;;;;;4958472;28;20070;-74
2021/04/27 09:13:26;;;;;;;18.17;13.40;;;333.60;1868.80;;;;;;4975136;28;20493;-72
2021/04/27 09:15:53;;;;;;;16.55;13.25;;;333.50;1868.80;;;;;;4975577;28;20023;-72
2021/04/27 09:18:38;;;;;;;17.95;12.93;;;333.50;1868.80;;;;;;4975225;28;20376;-73
2021/04/27 09:21:10;;;;;;;15.05;12.13;;;333.50;1868.80;;;;;;4959104;28;20030;-87
2021/04/27 09:23:42;;;;;;;17.08;14.05;;;333.40;1868.80;;;;;;4975949;28;20114;-88
2021/04/27 09:26:19;;;;;;;21.95;16.52;;;333.40;1843.20;;;;;;4975413;28;20064;-87
2021/04/27 09:28:50;;;;;;;17.98;14.32;;;333.40;1843.20;;;;;;4974087;28;20476;-88
2021/04/27 09:31:34;;;;;;;21.17;14.77;;;333.30;1868.80;;;;;;4974410;28;20049;-76
2021/04/27 09:34:29;;;;;;;20.08;14.25;;;333.30;1868.80;;;;;;4956873;28;20023;-83
2021/04/27 09:37:00;;;;;;;18.25;13.60;;;333.40;1894.40;;;;;;4973839;28;20058;-74
2021/04/27 09:39:47;;;;;;;18.45;13.57;;;333.40;1894.40;;;;;;4973911;28;20113;-74
2021/04/27 09:42:19;;;;;;;17.45;13.73;;;333.50;1868.80;;;;;;4972949;28;20054;-73
2021/04/27 09:44:53;;;;;;;21.20;14.25;;;333.50;1868.80;;;;;;4974249;28;20042;-74
2021/04/27 09:47:26;;;;;;;20.98;13.80;;;333.60;1868.80;;;;;;4983535;28;20511;-77
2021/04/27 09:50:09;;;;;;;19.45;14.60;;;333.70;1843.20;;;;;;4992528;28;20074;-76
2021/04/27 09:52:45;;;;;;;22.52;14.70;;;333.70;1843.20;;;;;;4976113;28;20062;-73
2021/04/27 09:55:20;;;;;;;22.05;15.63;;;333.70;1843.20;;;;;;4993971;28;20050;-81
2021/04/27 09:57:56;;;;;;;16.98;13.77;;;358.40;1817.60;;;;;;4993331;28;20034;-79
2021/04/27 10:00:33;;;;;;;21.65;14.93;;;358.50;1817.60;;;;;;4987061;28;20035;-86
2021/04/27 10:03:19;;;;;;;19.17;14.35;;;358.50;1817.60;;;;;;4993399;28;20085;-80
2021/04/27 10:05:47;;;;;;;21.85;15.10;;;358.60;1843.20;;;;;;4976038;28;20038;-78
2021/04/27 10:08:13;;;;;;;18.08;14.07;;;358.60;1817.60;;;;;;4992940;28;20105;-73
2021/04/27 10:10:39;;;;;;;18.10;14.32;;;358.70;1817.60;;;;;;4993301;28;20097;-75
2021/04/27 10:13:08;;;;;;;19.45;13.10;;;358.80;1817.60;;;;;;4993900;28;20030;-73
2021/04/27 10:15:34;;;;;;;17.50;13.07;;;358.80;1817.60;;;;;;4992370;28;20042;-74
2021/04/27 10:18:02;;;;;;;18.52;13.27;;;358.90;1792.00;;;;;;4991571;28;20030;-80
2021/04/27 10:20:28;;;;;;;17.73;13.75;;;358.90;1766.40;;;;;;4957705;28;20054;-75
2021/04/27 10:22:55;;;;;;;18.63;12.70;;;358.90;1766.40;;;;;;4974083;28;20030;-77
2021/04/27 10:25:28;;;;;;;17.20;12.38;;;359.00;1766.40;;;;;;4974582;28;20039;-74
2021/04/27 10:28:04;;;;;;;14.63;10.68;;;359.00;1740.80;;;;;;4974521;28;20019;-79
2021/04/27 10:30:49;;;;;;;15.63;11.88;;;359.00;1740.80;;;;;;4974005;28;20118;-74
2021/04/27 10:33:55;;;;;;;;;;;359.00;1715.20;;;;;;4974972;28;20051;-75
2021/04/27 10:36:16;;;;;;;25.80;16.15;;;358.90;1715.20;;;;;;4970435;28;20381;-74
2021/04/27 10:38:45;;;;;;;31.02;18.55;;;358.90;1715.20;;;;;;4974630;28;20031;-74
2021/04/27 10:41:13;;;;;;;46.15;23.73;;;358.90;1715.20;;;;;;4974397;28;20029;-74
2021/04/27 10:43:41;;;;;;;77.88;36.08;;;358.90;1715.20;;;;;;4973848;28;20027;-75
2021/04/27 10:46:21;;;;;;;74.70;32.40;;;359.00;1715.20;;;;;;4956905;28;20051;-74
2021/04/27 10:48:48;;;;;;;45.35;22.63;;;359.00;1740.80;;;;;;4974355;28;20054;-75
2021/04/27 10:51:20;;;;;;;37.78;18.65;;;359.10;1715.20;;;;;;4974149;28;20030;-74
2021/04/27 10:54:09;;;;;;;23.10;14.60;;;359.10;1689.60;;;;;;4974417;28;20041;-74
2021/04/27 10:56:36;;;;;;;21.70;11.73;;;359.10;1689.60;;;;;;4957048;28;20480;-75
2021/04/27 10:59:10;;;;;;;16.02;10.77;;;359.20;1664.00;;;;;;4973893;28;20058;-72
2021/04/27 11:01:40;;;;;;;13.93;10.95;;;359.20;1689.60;;;;;;4969661;28;20099;-71
2021/04/27 11:04:26;;;;;;;15.25;11.30;;;359.30;1664.00;;;;;;4974085;28;20039;-71
2021/04/27 11:07:16;;;;;;;14.18;11.00;;;384.00;1638.40;;;;;;4973682;28;20410;-71
2021/04/27 11:10:04;;;;;;;22.05;11.73;;;384.00;1638.40;;;;;;4973993;28;20037;-71
2021/04/27 11:12:29;;;;;;;14.25;10.52;;;384.00;1638.40;;;;;;4933186;29;20042;-71
2021/04/27 11:15:05;;;;;;;14.48;10.75;;;384.00;1612.80;;;;;;4932898;29;20032;-71
2021/04/27 11:17:36;;;;;;;13.77;10.55;;;384.00;1612.80;;;;;;4933296;29;20123;-70
2021/04/27 11:20:09;;;;;;;13.70;11.27;;;384.00;1587.20;;;;;;4932936;29;20207;-71
2021/04/27 11:22:37;;;;;;;16.13;10.40;;;384.00;1587.20;;;;;;4917301;29;20036;-71
2021/04/27 11:25:07;;;;;;;20.48;12.18;;;359.30;1587.20;;;;;;4933166;29;20070;-71
2021/04/27 11:27:39;;;;;;;13.55;10.43;;;359.30;1587.20;;;;;;4932876;29;20121;-71
2021/04/27 11:30:14;;;;;;;14.05;11.80;;;359.30;1587.20;;;;;;4937120;29;20044;-70
2021/04/27 11:32:44;;;;;;;25.95;12.32;;;359.30;1587.20;;;;;;4937043;29;20024;-70
2021/04/27 11:35:17;;;;;;;23.02;11.02;;;359.30;1612.80;;;;;;4947725;29;20038;-70
2021/04/27 11:37:58;;;;;;;19.88;12.95;;;359.30;1612.80;;;;;;4956148;29;20039;-71
2021/04/27 11:40:30;;;;;;;25.48;13.43;;;359.20;1612.80;;;;;;4956173;29;20034;-70
2021/04/27 11:43:01;;;;;;;25.00;11.57;;;359.30;1612.80;;;;;;4955467;29;20050;-71
2021/04/27 11:45:35;;;;;;;26.25;13.13;;;359.30;1612.80;;;;;;4955878;29;20090;-70
2021/04/27 11:48:01;;;;;;;18.65;12.85;;;359.20;1612.80;;;;;;4955484;29;20031;-71
2021/04/27 11:50:32;;;;;;;20.45;13.93;;;359.20;1612.80;;;;;;4991093;28;20038;-70
2021/04/27 11:53:06;;;;;;;34.05;17.48;;;359.20;1587.20;;;;;;4996932;28;20022;-70
2021/04/27 11:55:48;;;;;;;31.30;17.00;;;359.10;1561.60;;;;;;4996626;28;20034;-71
2021/04/27 11:58:19;;;;;;;25.13;15.25;;;359.20;1561.60;;;;;;4996004;28;20051;-70
2021/04/27 12:00:57;;;;;;;24.80;15.07;;;359.10;1561.60;;;;;;4996090;28;20027;-70
2021/04/27 12:03:40;;;;;;;34.75;19.55;;;359.10;1561.60;;;;;;4996626;28;20030;-70
2021/04/27 12:06:05;;;;;;;28.17;15.90;;;359.10;1561.60;;;;;;4978694;28;20061;-70
2021/04/27 12:08:39;;;;;;;22.65;14.07;;;359.20;1587.20;;;;;;4996551;28;20042;-71
2021/04/27 12:11:08;;;;;;;18.55;13.18;;;359.20;1587.20;;;;;;4996467;28;20065;-71
2021/04/27 12:13:34;;;;;;;38.63;23.08;;;359.20;1587.20;;;;;;4978414;28;20125;-70
2021/04/27 12:16:09;;;;;;;38.28;16.40;;;359.30;1638.40;;;;;;4996265;28;20105;-69
2021/04/27 12:18:53;;;;;;;30.73;13.52;;;384.10;1638.40;;;;;;4977876;28;20507;-70
2021/04/27 12:21:38;;;;;;;28.53;14.37;;;384.20;1612.80;;;;;;4994086;28;20019;-70
2021/04/27 12:24:23;;;;;;;23.00;13.85;;;384.20;1587.20;;;;;;4990836;28;20284;-69
2021/04/27 12:27:10;;;;;;;24.83;12.52;;;384.20;1587.20;;;;;;4991249;28;20054;-70
2021/04/27 12:29:40;;;;;;;18.50;12.07;;;384.20;1587.20;;;;;;4993876;28;20081;-72
2021/04/27 12:32:16;;;;;;;18.27;12.02;;;384.30;1587.20;;;;;;4996211;28;20034;-72
2021/04/27 12:34:54;;;;;;;14.23;11.27;;;384.20;1561.60;;;;;;4995062;28;20392;-73
2021/04/27 12:37:19;;;;;;;14.60;11.82;;;384.30;1561.60;;;;;;4995868;28;20026;-72
2021/04/27 12:39:45;;;;;;;15.75;12.60;;;384.20;1561.60;;;;;;4994588;28;20037;-72
2021/04/27 12:42:26;;;;;;;15.40;11.57;;;384.20;1561.60;;;;;;4994957;28;20058;-71
2021/04/27 12:45:05;;;;;;;19.40;13.65;;;384.30;1561.60;;;;;;4992997;28;20058;-71
2021/04/27 12:47:35;;;;;;;27.60;16.45;;;384.20;1561.60;;;;;;4993412;28;20046;-74
2021/04/27 12:50:18;;;;;;;19.65;14.45;;;384.20;1561.60;;;;;;4993474;28;20101;-76
2021/04/27 12:52:49;;;;;;;20.33;14.23;;;384.20;1561.60;;;;;;4992578;28;20022;-73
2021/04/27 12:55:26;;;;;;;15.35;11.90;;;384.20;1561.60;;;;;;4987144;28;20026;-78
2021/04/27 12:58:06;;;;;;;20.17;12.73;;;384.20;1536.00;;;;;;4990441;28;20023;-73
2021/04/27 13:00:31;;;;;;;19.15;14.50;;;384.10;1536.00;;;;;;4975609;28;20030;-71
2021/04/27 13:02:57;;;;;;;20.98;14.27;;;384.10;1536.00;;;;;;4986074;28;20030;-71
2021/04/27 13:05:27;;;;;;;20.08;15.93;;;384.10;1536.00;;;;;;4994399;28;20052;-72
2021/04/27 13:08:22;;;;;;;24.75;16.20;;;384.10;1561.60;;;;;;4994961;28;20033;-72
2021/04/27 13:10:48;;;;;;;23.70;16.83;;;384.10;1561.60;;;;;;4993088;28;20096;-71
2021/04/27 13:13:20;;;;;;;22.92;15.50;;;384.10;1587.20;;;;;;4991090;28;20026;-71
2021/04/27 13:15:52;;;;;;;22.83;14.55;;;384.10;1587.20;;;;;;4989760;28;20161;-72
2021/04/27 13:18:22;;;;;;;20.38;15.18;;;384.10;1587.20;;;;;;4994173;28;20018;-72
2021/04/27 13:20:51;;;;;;;21.73;15.75;;;384.10;1587.20;;;;;;4991147;28;20026;-70
2021/04/27 13:23:19;;;;;;;20.38;15.18;;;384.10;1587.20;;;;;;4992711;28;20021;-72
2021/04/27 13:25:48;;;;;;;20.40;15.77;;;384.10;1612.80;;;;;;4989617;28;20088;-73
2021/04/27 13:28:19;;;;;;;26.20;16.70;;;384.10;1612.80;;;;;;4977107;28;20034;-72
2021/04/27 13:30:50;;;;;;;30.55;18.65;;;384.00;1612.80;;;;;;4995880;28;20030;-73
2021/04/27 13:33:29;;;;;;;30.73;19.45;;;384.10;1612.80;;;;;;4994513;28;20027;-73
2021/04/27 13:35:55;;;;;;;27.33;18.15;;;384.10;1612.80;;;;;;4989097;28;20031;-73
2021/04/27 13:38:24;;;;;;;22.20;16.17;;;384.10;1638.40;;;;;;4974916;28;20107;-71
2021/04/27 13:40:52;;;;;;;27.27;15.57;;;384.10;1612.80;;;;;;4984341;28;20434;-72
2021/04/27 13:43:23;;;;;;;23.33;15.20;;;384.10;1612.80;;;;;;4977127;28;20026;-73
2021/04/27 13:45:51;;;;;;;20.48;14.05;;;384.10;1612.80;;;;;;4977959;28;20495;-74
2021/04/27 13:48:21;;;;;;;19.58;14.82;;;384.10;1638.40;;;;;;4973478;28;20176;-74
2021/04/27 13:50:49;;;;;;;21.95;16.58;;;384.10;1587.20;;;;;;4973973;28;20134;-74
2021/04/27 13:53:16;;;;;;;25.00;16.80;;;384.00;1561.60;;;;;;4974483;28;20023;-73
2021/04/27 13:55:43;;;;;;;21.20;15.93;;;384.00;1561.60;;;;;;4976420;28;20027;-72
2021/04/27 13:58:09;;;;;;;22.48;15.90;;;359.30;1536.00;;;;;;4981562;28;20052;-71
2021/04/27 14:00:38;;;;;;;20.73;15.27;;;359.30;1536.00;;;;;;4986432;28;20073;-72
2021/04/27 14:03:04;;;;;;;19.65;13.50;;;359.20;1536.00;;;;;;4994428;28;20077;-74
2021/04/27 14:05:29;;;;;;;18.67;14.00;;;359.20;1536.00;;;;;;4994352;28;20046;-74
2021/04/27 14:07:56;;;;;;;21.90;15.35;;;359.20;1561.60;;;;;;4977307;28;20464;-75
2021/04/27 14:10:23;;;;;;;21.00;13.63;;;359.20;1612.80;;;;;;4993284;28;20030;-73
2021/04/27 14:12:52;;;;;;;18.13;12.65;;;359.20;1587.20;;;;;;4993036;28;20015;-72
2021/04/27 14:15:20;;;;;;;15.30;12.02;;;359.20;1561.60;;;;;;4993290;28;20025;-73
2021/04/27 14:17:47;;;;;;;22.65;13.95;;;359.20;1561.60;;;;;;4993297;28;20027;-73
2021/04/27 14:20:17;;;;;;;24.60;15.52;;;359.20;1561.60;;;;;;4992902;28;20064;-73
2021/04/27 14:22:42;;;;;;;25.58;15.93;;;359.10;1536.00;;;;;;4993666;28;20361;-72
2021/04/27 14:25:10;;;;;;;24.23;16.58;;;359.10;1561.60;;;;;;4975454;28;20045;-72
2021/04/27 14:27:37;;;;;;;26.85;18.40;;;359.00;1561.60;;;;;;4992771;28;20048;-71
2021/04/27 14:30:04;;;;;;;29.13;18.90;;;359.00;1587.20;;;;;;4993018;28;20031;-72
2021/04/27 14:32:29;;;;;;;26.33;18.52;;;359.00;1612.80;;;;;;4992978;28;20026;-72
2021/04/27 14:34:55;;;;;;;27.83;17.85;;;359.00;1612.80;;;;;;4992639;28;20022;-71
2021/04/27 14:37:21;;;;;;;27.42;16.95;;;359.00;1612.80;;;;;;4992806;28;20399;-72
2021/04/27 14:39:47;;;;;;;24.30;17.20;;;358.90;1612.80;;;;;;4992772;28;20046;-71
2021/04/27 14:42:13;;;;;;;30.35;17.92;;;358.90;1612.80;;;;;;4975306;28;20026;-72
2021/04/27 14:44:39;;;;;;;25.15;17.25;;;358.90;1638.40;;;;;;4992407;28;20114;-71
2021/04/27 14:47:05;;;;;;;27.27;17.35;;;358.80;1612.80;;;;;;4992465;28;20145;-72
2021/04/27 14:49:31;;;;;;;27.40;17.17;;;358.90;1638.40;;;;;;4989551;28;20022;-72
2021/04/27 14:51:58;;;;;;;27.55;17.42;;;358.80;1638.40;;;;;;4992588;28;20023;-72
2021/04/27 14:54:24;;;;;;;28.65;17.60;;;358.80;1638.40;;;;;;4975376;28;20038;-72
2021/04/27 14:56:50;;;;;;;29.52;18.95;;;358.80;1638.40;;;;;;4992187;28;20014;-72
2021/04/27 14:59:16;;;;;;;28.05;18.58;;;358.80;1664.00;;;;;;4992730;28;20034;-72
2021/04/27 15:01:42;;;;;;;30.17;18.90;;;358.80;1664.00;;;;;;4992490;28;20177;-72
2021/04/27 15:04:08;;;;;;;30.92;17.73;;;358.80;1664.00;;;;;;4991408;28;20058;-71
2021/04/27 15:06:34;;;;;;;24.88;18.08;;;358.70;1638.40;;;;;;4991841;28;20908;-72
2021/04/27 15:09:01;;;;;;;31.95;19.10;;;358.70;1638.40;;;;;;4992681;28;20345;-72
2021/04/27 15:11:28;;;;;;;38.13;21.65;;;358.70;1638.40;;;;;;4991797;28;20069;-73
2021/04/27 15:13:54;;;;;;;38.80;22.98;;;358.60;1612.80;;;;;;4993715;28;20484;-72
2021/04/27 15:16:20;;;;;;;45.38;25.95;;;358.60;1638.40;;;;;;4993740;28;20054;-72
2021/04/27 15:18:46;;;;;;;45.42;25.63;;;358.60;1638.40;;;;;;4993314;28;20061;-72
2021/04/27 15:21:12;;;;;;;41.38;24.75;;;358.50;1638.40;;;;;;4993683;28;20030;-73
2021/04/27 15:23:42;;;;;;;41.22;24.65;;;358.50;1638.40;;;;;;4993711;28;20057;-72
2021/04/27 15:26:09;;;;;;;41.17;25.00;;;358.50;1638.40;;;;;;4993297;28;20073;-71
2021/04/27 15:28:35;;;;;;;37.17;25.55;;;358.40;1638.40;;;;;;4993782;28;20022;-72
2021/04/27 15:31:04;;;;;;;57.63;25.45;;;358.40;1638.40;;;;;;4993637;28;20015;-71
2021/04/27 15:33:30;;;;;;;50.67;26.20;;;358.40;1664.00;;;;;;4993343;28;20072;-71
2021/04/27 15:35:56;;;;;;;50.88;26.17;;;333.70;1664.00;;;;;;4993574;28;20026;-72
2021/04/27 15:38:21;;;;;;;59.72;27.77;;;333.70;1689.60;;;;;;4993145;28;20030;-72
2021/04/27 15:40:47;;;;;;;67.30;30.98;;;333.70;1689.60;;;;;;4993369;28;20365;-71
2021/04/27 15:43:13;;;;;;;63.00;30.65;;;333.70;1689.60;;;;;;4993310;28;20030;-71
2021/04/27 15:45:40;;;;;;;68.90;29.95;;;333.60;1715.20;;;;;;4993117;28;20380;-73
2021/04/27 15:48:07;;;;;;;88.55;37.78;;;333.60;1715.20;;;;;;4992985;28;20050;-71
2021/04/27 15:50:34;;;;;;;93.38;47.75;;;333.60;1715.20;;;;;;4993393;28;20089;-73
2021/04/27 15:53:01;;;;;;;91.43;48.33;;;333.50;1715.20;;;;;;4993362;28;20468;-70
2021/04/27 15:55:28;;;;;;;75.78;42.38;;;333.50;1740.80;;;;;;4993140;28;20066;-73
2021/04/27 15:57:54;;;;;;;65.63;38.95;;;333.50;1740.80;;;;;;4993513;28;20094;-71
2021/04/27 16:00:21;;;;;;;58.20;34.08;;;333.50;1740.80;;;;;;4975853;28;20081;-71
2021/04/27 16:02:50;;;;;;;58.22;31.58;;;333.50;1740.80;;;;;;4992918;28;20427;-73
2021/04/27 16:05:16;;;;;;;52.00;30.23;;;333.40;1740.80;;;;;;4993107;28;20046;-73
2021/04/27 16:07:42;;;;;;;44.83;27.73;;;333.40;1740.80;;;;;;4993349;28;20019;-72
2021/04/27 16:10:08;;;;;;;45.78;26.58;;;333.40;1766.40;;;;;;4975226;28;20551;-71
2021/04/27 16:12:34;;;;;;;74.22;36.67;;;333.40;1766.40;;;;;;4993578;28;20033;-71
2021/04/27 16:15:00;;;;;;;133.07;59.65;;;333.40;1766.40;;;;;;4977886;28;20038;-74
2021/04/27 16:17:25;;;;;;;158.13;78.28;;;333.40;1766.40;;;;;;4996381;28;20109;-72
2021/04/27 16:19:51;;;;;;;119.70;63.00;;;333.40;1817.60;;;;;;4996891;28;20057;-71
2021/04/27 16:22:17;;;;;;;95.05;54.10;;;333.30;1792.00;;;;;;4978812;28;20579;-73
2021/04/27 16:24:43;;;;;;;69.75;40.20;;;333.30;1792.00;;;;;;4978732;28;20046;-72
2021/04/27 16:27:08;;;;;;;53.20;29.95;;;333.30;1792.00;;;;;;4996932;28;20018;-72
2021/04/27 16:29:34;;;;;;;53.42;31.63;;;333.30;1792.00;;;;;;4996589;28;20117;-72
2021/04/27 16:32:02;;;;;;;52.33;30.77;;;333.30;1792.00;;;;;;4995972;28;20027;-72
2021/04/27 16:34:28;;;;;;;50.38;30.10;;;333.20;1792.00;;;;;;4996497;28;20022;-71
2021/04/27 16:36:54;;;;;;;44.25;27.65;;;333.20;1792.00;;;;;;4979026;28;20022;-73
2021/04/27 16:39:19;;;;;;;40.92;26.50;;;333.20;1792.00;;;;;;4996121;28;20077;-72
2021/04/27 16:41:45;;;;;;;35.10;23.38;;;333.20;1792.00;;;;;;4996439;28;20109;-72
2021/04/27 16:44:11;;;;;;;31.33;20.95;;;333.20;1766.40;;;;;;4977900;28;20125;-72
2021/04/27 16:46:37;;;;;;;60.47;22.50;;;333.20;1766.40;;;;;;4995835;28;20125;-72
2021/04/27 16:49:03;;;;;;;155.80;31.27;;;333.20;1792.00;;;;;;4996053;28;20502;-73
2021/04/27 16:51:29;;;;;;;70.22;29.98;;;333.10;1817.60;;;;;;4996130;28;20026;-74
2021/04/27 16:53:55;;;;;;;328.83;43.92;;;333.10;1817.60;;;;;;4995867;28;20030;-77
2021/04/27 16:56:20;;;;;;;101.28;28.60;;;333.10;1817.60;;;;;;4978841;28;20026;-73
2021/04/27 16:58:46;;;;;;;66.65;27.40;;;333.10;1817.60;;;;;;4978630;28;20034;-75
2021/04/27 17:01:12;;;;;;;53.80;25.92;;;333.10;1843.20;;;;;;4985460;28;20034;-75
2021/04/27 17:03:40;;;;;;;58.20;29.58;;;333.10;1843.20;;;;;;4976398;28;20031;-75
2021/04/27 17:06:06;;;;;;;66.70;40.45;;;333.10;1817.60;;;;;;4976419;28;20031;-73
2021/04/27 17:08:32;;;;;;;67.95;48.63;;;333.00;1817.60;;;;;;4975664;28;20054;-80
2021/04/27 17:10:57;;;;;;;44.55;32.08;;;333.10;1996.80;;;;;;4976553;28;20023;-74
2021/04/27 17:13:23;;;;;;;53.70;39.30;;;333.30;1996.80;;;;;;4976480;28;20354;-73
2021/04/27 17:15:49;;;;;;;49.92;31.98;;;333.40;1996.80;;;;;;4975952;28;20034;-77
2021/04/27 17:18:15;;;;;;;36.30;26.48;;;333.40;1920.00;;;;;;4976066;28;20074;-76
2021/04/27 17:20:41;;;;;;;38.88;26.52;;;333.40;1843.20;;;;;;4976152;28;20058;-75
2021/04/27 17:23:07;;;;;;;37.38;24.80;;;333.30;1817.60;;;;;;4975761;28;20113;-76
2021/04/27 17:25:35;;;;;;;32.90;22.75;;;333.30;1817.60;;;;;;4975258;28;20043;-70
2021/04/27 17:28:01;;;;;;;27.15;19.92;;;333.20;1817.60;;;;;;4976100;28;20065;-75
2021/04/27 17:30:27;;;;;;;23.55;16.08;;;333.10;1817.60;;;;;;4976121;28;20101;-73
2021/04/27 17:32:53;;;;;;;25.10;16.95;;;333.10;1817.60;;;;;;4975671;28;20469;-75
2021/04/27 17:35:19;;;;;;;34.58;20.08;;;333.00;1817.60;;;;;;4958341;28;20053;-73
2021/04/27 17:37:45;;;;;;;31.52;20.90;;;333.00;1817.60;;;;;;4975939;28;20552;-74
2021/04/27 17:40:12;;;;;;;47.88;28.00;;;333.00;1817.60;;;;;;4975771;28;20473;-73
2021/04/27 17:42:39;;;;;;;42.08;26.25;;;332.90;1843.20;;;;;;4975873;28;20089;-75
2021/04/27 17:45:07;;;;;;;42.55;25.88;;;332.90;1843.20;;;;;;4974260;28;20390;-71
2021/04/27 17:47:33;;;;;;;39.88;23.17;;;332.90;1843.20;;;;;;4988724;28;20042;-75
2021/04/27 17:49:59;;;;;;;32.40;21.17;;;332.90;1843.20;;;;;;4977292;28;20030;-76
2021/04/27 17:52:25;;;;;;;30.63;20.13;;;332.80;1843.20;;;;;;4995048;28;20161;-75
2021/04/27 17:54:51;;;;;;;26.83;18.48;;;332.80;1843.20;;;;;;4995030;28;20022;-73
2021/04/27 17:57:17;;;;;;;28.88;17.52;;;332.80;1843.20;;;;;;4980022;28;20034;-75
2021/04/27 17:59:43;;;;;;;29.33;16.98;;;332.80;1843.20;;;;;;4967336;28;20027;-77
2021/04/27 18:02:09;;;;;;;24.52;16.20;;;308.10;1817.60;;;;;;4956573;28;20035;-78
2021/04/27 18:04:37;;;;;;;25.30;17.50;;;308.10;1817.60;;;;;;4975634;28;20043;-76
2021/04/27 18:07:03;;;;;;;33.33;22.42;;;308.10;1817.60;;;;;;4974981;28;20019;-76
2021/04/27 18:09:29;;;;;;;30.30;21.38;;;308.10;1792.00;;;;;;4974915;28;20031;-77
2021/04/27 18:11:54;;;;;;;33.72;22.48;;;308.10;1792.00;;;;;;4975118;28;20030;-72
2021/04/27 18:14:20;;;;;;;28.45;20.23;;;308.10;1792.00;;;;;;4974313;28;20113;-75
2021/04/27 18:16:46;;;;;;;32.63;21.50;;;308.00;1792.00;;;;;;4973686;28;20098;-72
2021/04/27 18:19:12;;;;;;;30.33;20.50;;;308.00;1792.00;;;;;;4973306;28;20114;-77
2021/04/27 18:21:37;;;;;;;29.00;20.58;;;308.00;1792.00;;;;;;4973899;28;20035;-74
2021/04/27 18:24:04;;;;;;;23.17;16.42;;;308.00;1792.00;;;;;;4955536;28;20042;-75
2021/04/27 18:26:29;;;;;;;26.08;15.80;;;307.90;1792.00;;;;;;4973743;28;20106;-78
2021/04/27 18:28:56;;;;;;;21.00;13.88;;;307.90;1792.00;;;;;;4975123;28;20114;-75
2021/04/27 18:31:22;;;;;;;21.63;13.52;;;307.90;1792.00;;;;;;4974474;28;20354;-77
2021/04/27 18:33:48;;;;;;;22.27;11.60;;;307.90;1792.00;;;;;;4974965;28;20030;-78
2021/04/27 18:36:14;;;;;;;25.60;13.55;;;307.90;1792.00;;;;;;4975006;28;20027;-79
2021/04/27 18:38:41;;;;;;;61.75;34.15;;;307.80;1792.00;;;;;;4973628;28;20031;-78
2021/04/27 18:41:07;;;;;;;53.25;32.30;;;307.70;1817.60;;;;;;4974992;28;20038;-76
2021/04/27 18:43:33;;;;;;;60.55;35.83;;;307.80;1817.60;;;;;;4974924;28;20023;-78
2021/04/27 18:45:59;;;;;;;63.08;39.75;;;307.80;1817.60;;;;;;4973862;28;20059;-77
2021/04/27 18:48:25;;;;;;;58.22;37.70;;;307.80;1817.60;;;;;;4974688;28;20082;-77
2021/04/27 18:50:52;;;;;;;58.13;36.13;;;307.80;1817.60;;;;;;4957374;28;20039;-78
2021/04/27 18:53:19;;;;;;;51.85;33.78;;;307.80;1817.60;;;;;;4974262;28;20022;-77
2021/04/27 18:55:47;;;;;;;58.05;34.53;;;307.80;1843.20;;;;;;4975026;28;20023;-76
2021/04/27 18:58:13;;;;;;;60.47;37.00;;;307.80;1843.20;;;;;;4974834;28;20019;-77
2021/04/27 19:00:39;;;;;;;89.57;55.72;;;307.80;1843.20;;;;;;4974237;28;20023;-77
2021/04/27 19:03:06;;;;;;;115.88;75.00;;;307.80;1843.20;;;;;;4974746;28;20034;-78
2021/04/27 19:05:33;;;;;;;105.90;75.70;;;307.80;1843.20;;;;;;4974361;28;20035;-77
2021/04/27 19:08:04;;;;;;;100.45;69.38;;;307.80;1843.20;;;;;;4974134;28;20413;-77
2021/04/27 19:10:32;;;;;;;84.15;58.15;;;307.80;1868.80;;;;;;4974784;28;20073;-79
2021/04/27 19:12:58;;;;;;;81.25;54.72;;;307.80;1843.20;;;;;;4974698;28;20061;-77
2021/04/27 19:15:25;;;;;;;77.78;53.10;;;307.80;1843.20;;;;;;4956887;28;20527;-76
2021/04/27 19:17:51;;;;;;;72.63;49.50;;;307.80;1843.20;;;;;;4974381;28;20544;-75
2021/04/27 19:20:19;;;;;;;75.20;49.72;;;307.80;1843.20;;;;;;4974495;28;20050;-76
2021/04/27 19:22:46;;;;;;;77.05;51.45;;;307.80;1843.20;;;;;;4980536;28;20033;-72
2021/04/27 19:25:13;;;;;;;170.13;89.40;;;307.90;1843.20;;;;;;4993436;28;20035;-73
2021/04/27 19:27:39;;;;;;;311.63;139.02;;;307.90;1843.20;;;;;;4993879;28;20033;-79
2021/04/27 19:30:08;;;;;;;357.30;157.60;;;307.90;1868.80;;;;;;4994099;28;20085;-79
2021/04/27 19:32:35;;;;;;;328.33;146.23;;;307.90;1868.80;;;;;;4977117;28;20054;-79
2021/04/27 19:35:01;;;;;;;239.90;120.50;;;307.90;1868.80;;;;;;4994382;28;20134;-78
2021/04/27 19:37:27;;;;;;;172.80;94.13;;;307.90;1868.80;;;;;;4994196;28;20050;-79
2021/04/27 19:39:53;;;;;;;156.45;92.03;;;307.90;1868.80;;;;;;4994289;28;20049;-78
2021/04/27 19:42:18;;;;;;;195.35;109.10;;;307.90;1868.80;;;;;;4994270;28;20504;-78
2021/04/27 19:44:44;;;;;;;180.48;107.15;;;307.90;1868.80;;;;;;4994187;28;20089;-78
2021/04/27 19:47:10;;;;;;;155.60;89.68;;;307.90;1868.80;;;;;;4993851;28;20400;-79
2021/04/27 19:49:37;;;;;;;145.98;89.97;;;307.90;1894.40;;;;;;4978928;28;20034;-81
2021/04/27 19:52:04;;;;;;;157.43;96.55;;;307.90;1894.40;;;;;;4998026;28;20023;-80
2021/04/27 19:54:30;;;;;;;161.48;100.07;;;307.90;1894.40;;;;;;4998267;28;20085;-80
2021/04/27 19:56:56;;;;;;;170.70;107.38;;;307.80;1894.40;;;;;;4998039;28;20475;-80
2021/04/27 19:59:22;;;;;;;166.80;102.07;;;307.80;1868.80;;;;;;4980230;28;20431;-78
2021/04/27 20:01:47;;;;;;;161.52;99.85;;;307.80;1868.80;;;;;;4997806;28;20034;-77
2021/04/27 20:04:13;;;;;;;147.98;88.95;;;307.80;1868.80;;;;;;4997776;28;20058;-78
2021/04/27 20:06:39;;;;;;;130.55;79.13;;;307.80;1868.80;;;;;;4997748;28;20375;-78
2021/04/27 20:09:05;;;;;;;121.65;73.55;;;307.80;1868.80;;;;;;4997851;28;20030;-79
2021/04/27 20:11:31;;;;;;;107.97;67.47;;;307.80;1868.80;;;;;;4997778;28;20023;-79
2021/04/27 20:13:57;;;;;;;89.40;59.75;;;307.80;1868.80;;;;;;4997511;28;20033;-78
2021/04/27 20:16:23;;;;;;;82.78;54.55;;;307.80;1868.80;;;;;;4997446;28;20034;-79
2021/04/27 20:18:49;;;;;;;82.22;53.28;;;307.80;1868.80;;;;;;4997573;28;20033;-80
2021/04/27 20:21:14;;;;;;;78.50;49.42;;;307.80;1868.80;;;;;;4997413;28;20384;-80
2021/04/27 20:23:40;;;;;;;73.57;48.47;;;307.80;1894.40;;;;;;4979914;28;20491;-79
2021/04/27 20:26:06;;;;;;;115.05;67.78;;;307.80;1868.80;;;;;;4997514;28;20043;-78
2021/04/27 20:28:32;;;;;;;135.98;76.18;;;307.80;1868.80;;;;;;4979673;28;20484;-78
2021/04/27 20:30:57;;;;;;;122.72;74.22;;;307.80;1868.80;;;;;;4997263;28;20041;-71
2021/04/27 20:33:23;;;;;;;113.53;70.43;;;307.80;1894.40;;;;;;4979236;28;20034;-75
2021/04/27 20:35:49;;;;;;;91.30;60.25;;;307.80;1945.60;;;;;;4996573;28;20070;-74
2021/04/27 20:38:15;;;;;;;79.60;53.80;;;307.80;1920.00;;;;;;4996885;28;20033;-73
2021/04/27 20:40:41;;;;;;;70.25;45.10;;;307.80;1894.40;;;;;;4995559;28;20041;-73
2021/04/27 20:43:08;;;;;;;57.75;40.53;;;307.80;1894.40;;;;;;4995354;28;20030;-73
2021/04/27 20:45:36;;;;;;;70.25;45.70;;;307.80;1894.40;;;;;;4994677;28;20511;-74
2021/04/27 20:48:06;;;;;;;81.93;51.72;;;307.80;1945.60;;;;;;4995684;28;20101;-73
2021/04/27 20:50:33;;;;;;;74.45;48.45;;;307.70;1920.00;;;;;;4991648;28;20523;-72
2021/04/27 20:52:59;;;;;;;62.33;41.45;;;307.70;1920.00;;;;;;4995367;28;20034;-72